Time;durP1;ratioP1;P1;durP2;ratioP2;P2;SDS_P1;SDS_P2;PMS_P1;PMS_P2;Temp;Humidity;BMP_temperature;BMP_pressure;BME280_temperature;BME280_humidity;BME280_pressure;Samples;Min_cycle;Max_cycle;Signal;HPM_P1;HPM_P2
2023/06/03 00:00:40;;;;;;;1.90;0.60;;;12.20;99.90;;;;;;4935762;28;20042;-82
2023/06/03 00:03:13;;;;;;;3.58;0.80;;;12.20;99.90;;;;;;4921715;28;20049;-87
2023/06/03 00:05:40;;;;;;;2.13;0.52;;;12.20;99.90;;;;;;4971110;28;20057;-83
2023/06/03 00:08:06;;;;;;;1.40;0.35;;;12.10;99.90;;;;;;4969991;28;20391;-85
2023/06/03 00:10:31;;;;;;;4.57;0.70;;;12.10;99.90;;;;;;4938795;28;20054;-84
2023/06/03 00:12:57;;;;;;;0.68;0.35;;;12.10;99.90;;;;;;4954320;28;20042;-85
2023/06/03 00:15:23;;;;;;;2.83;0.40;;;12.10;99.90;;;;;;4938480;28;20435;-84
2023/06/03 00:17:48;;;;;;;1.52;0.40;;;12.00;99.90;;;;;;4952780;28;20085;-82
2023/06/03 00:20:14;;;;;;;0.75;0.50;;;12.00;99.90;;;;;;4933502;28;20058;-82
2023/06/03 00:22:40;;;;;;;0.95;0.50;;;12.00;99.90;;;;;;4953045;28;20117;-85
2023/06/03 00:25:07;;;;;;;1.75;0.55;;;11.90;99.90;;;;;;4955251;28;20042;-86
2023/06/03 00:27:45;;;;;;;0.82;0.30;;;11.90;99.90;;;;;;4939163;28;20184;-84
2023/06/03 00:30:11;;;;;;;3.00;0.50;;;11.90;99.90;;;;;;4927805;28;20165;-83
2023/06/03 00:32:37;;;;;;;2.57;0.70;;;11.80;99.90;;;;;;4934395;28;20517;-84
2023/06/03 00:35:03;;;;;;;2.65;0.40;;;11.80;99.90;;;;;;4932298;28;20077;-83
2023/06/03 00:37:28;;;;;;;1.23;0.50;;;11.80;99.90;;;;;;4954063;28;20050;-82
2023/06/03 00:39:54;;;;;;;1.92;0.68;;;11.70;99.90;;;;;;4961120;28;20340;-82
2023/06/03 00:42:20;;;;;;;1.83;0.77;;;11.70;99.90;;;;;;4924954;28;20133;-84
2023/06/03 00:44:46;;;;;;;1.70;0.60;;;11.70;99.90;;;;;;4964635;28;20042;-83
2023/06/03 00:47:20;;;;;;;1.17;0.50;;;11.60;99.90;;;;;;4956906;28;20117;-81
2023/06/03 00:49:46;;;;;;;0.98;0.57;;;11.60;99.90;;;;;;4938603;28;20034;-82
2023/06/03 00:52:15;;;;;;;1.30;0.47;;;11.50;99.90;;;;;;4963113;28;20049;-83
2023/06/03 00:54:40;;;;;;;0.80;0.40;;;11.50;99.90;;;;;;4936993;28;20046;-83
2023/06/03 00:57:07;;;;;;;1.17;0.68;;;11.50;99.90;;;;;;4937974;28;20175;-82
2023/06/03 00:59:33;;;;;;;1.55;0.50;;;11.40;99.90;;;;;;4953663;28;20113;-82
2023/06/03 01:01:59;;;;;;;1.40;0.50;;;11.40;99.90;;;;;;4947236;28;20076;-86
2023/06/03 01:04:26;;;;;;;2.35;0.52;;;11.40;99.90;;;;;;4936697;28;20047;-81
2023/06/03 01:07:07;;;;;;;1.30;0.85;;;11.30;99.90;;;;;;4944836;28;20058;-82
2023/06/03 01:09:47;;;;;;;0.85;0.50;;;11.30;99.90;;;;;;4948444;28;20050;-83
2023/06/03 01:12:22;;;;;;;0.82;0.50;;;11.20;99.90;;;;;;4966908;28;20138;-82
2023/06/03 01:14:50;;;;;;;2.60;0.50;;;11.20;99.90;;;;;;4956818;28;20050;-81
2023/06/03 01:17:20;;;;;;;2.78;0.65;;;11.20;99.90;;;;;;4973649;28;20140;-82
2023/06/03 01:19:49;;;;;;;1.50;0.60;;;11.20;99.90;;;;;;4960766;28;20042;-80
2023/06/03 01:22:16;;;;;;;1.05;0.60;;;11.10;99.90;;;;;;4977462;28;20035;-82
2023/06/03 01:24:50;;;;;;;1.00;0.60;;;11.10;99.90;;;;;;4954871;28;20053;-84
2023/06/03 01:27:17;;;;;;;1.52;0.50;;;11.10;99.90;;;;;;4959844;28;20514;-82
2023/06/03 01:29:44;;;;;;;1.30;0.65;;;11.10;99.90;;;;;;4963482;28;20104;-84
2023/06/03 01:32:14;;;;;;;1.13;0.50;;;11.10;99.90;;;;;;4952344;28;20511;-86
2023/06/03 01:34:44;;;;;;;2.08;0.70;;;11.10;99.90;;;;;;4957920;28;20053;-81
2023/06/03 01:37:10;;;;;;;0.73;0.50;;;11.00;99.90;;;;;;4941406;28;20096;-84
2023/06/03 01:39:39;;;;;;;1.20;0.57;;;11.00;99.90;;;;;;4941750;28;20053;-85
2023/06/03 01:42:10;;;;;;;3.67;0.77;;;11.00;99.90;;;;;;4941181;28;20050;-86
2023/06/03 01:44:36;;;;;;;3.72;0.90;;;11.10;99.90;;;;;;4940568;28;20101;-84
2023/06/03 01:47:04;;;;;;;3.40;0.63;;;11.00;99.90;;;;;;4922781;28;20043;-84
2023/06/03 01:49:31;;;;;;;1.65;0.60;;;11.00;99.90;;;;;;4928183;28;20129;-82
2023/06/03 01:51:58;;;;;;;1.52;0.60;;;11.10;99.90;;;;;;4937782;28;20399;-80
2023/06/03 01:54:27;;;;;;;2.65;0.70;;;11.00;99.90;;;;;;4957033;28;20046;-85
2023/06/03 01:56:54;;;;;;;1.35;0.60;;;11.00;99.90;;;;;;4955351;28;20054;-82
2023/06/03 01:59:24;;;;;;;1.15;0.50;;;11.00;99.90;;;;;;4956757;28;20565;-82
2023/06/03 02:01:58;;;;;;;1.67;0.70;;;11.00;99.90;;;;;;4921735;28;20047;-82
2023/06/03 02:04:25;;;;;;;1.85;0.70;;;11.00;99.90;;;;;;4956457;28;20133;-81
2023/06/03 02:06:58;;;;;;;2.58;0.70;;;11.00;99.90;;;;;;4955895;28;20046;-81
2023/06/03 02:09:27;;;;;;;1.00;0.50;;;10.90;99.90;;;;;;4955679;28;20047;-84
2023/06/03 02:11:57;;;;;;;1.27;0.55;;;10.90;99.90;;;;;;4936528;28;20053;-83
2023/06/03 02:14:28;;;;;;;1.20;0.45;;;10.90;99.90;;;;;;4957269;28;20042;-82
2023/06/03 02:16:55;;;;;;;2.50;0.55;;;10.80;99.90;;;;;;4955986;28;20138;-82
2023/06/03 02:19:24;;;;;;;3.72;0.90;;;10.80;99.90;;;;;;4955024;28;20125;-84
2023/06/03 02:21:51;;;;;;;3.60;0.90;;;10.80;99.90;;;;;;4974049;28;20069;-83
2023/06/03 02:24:17;;;;;;;2.97;0.80;;;10.80;99.90;;;;;;4968771;28;20047;-84
2023/06/03 02:26:49;;;;;;;4.72;0.90;;;10.80;99.90;;;;;;4952073;28;20038;-82
2023/06/03 02:29:23;;;;;;;1.77;0.80;;;10.80;99.90;;;;;;4955903;28;20097;-81
2023/06/03 02:31:50;;;;;;;2.05;0.60;;;10.70;99.90;;;;;;4953281;28;20118;-81
2023/06/03 02:34:16;;;;;;;1.27;0.77;;;10.70;99.90;;;;;;4952307;28;20138;-84
2023/06/03 02:36:43;;;;;;;0.90;0.60;;;10.60;99.90;;;;;;4935321;28;20046;-81
2023/06/03 02:39:10;;;;;;;;;;;10.70;99.90;;;;;;4956423;28;20503;-80
2023/06/03 02:41:36;;;;;;;1.42;0.63;;;10.60;99.90;;;;;;4981929;28;19922;-79
2023/06/03 02:44:03;;;;;;;0.93;0.50;;;10.60;99.90;;;;;;4950817;28;20050;-86
2023/06/03 02:46:29;;;;;;;1.90;0.77;;;10.50;99.90;;;;;;4939056;28;20057;-81
2023/06/03 02:48:55;;;;;;;1.58;0.73;;;10.50;99.90;;;;;;4952281;28;20125;-80
2023/06/03 02:51:21;;;;;;;1.08;0.70;;;10.40;99.90;;;;;;4946030;28;20141;-83
2023/06/03 02:53:46;;;;;;;3.10;0.70;;;10.40;99.90;;;;;;4931505;28;20073;-82
2023/06/03 02:56:12;;;;;;;2.33;0.73;;;10.40;99.90;;;;;;4966711;28;20058;-84
2023/06/03 02:58:40;;;;;;;2.58;1.45;;;10.40;99.90;;;;;;4921597;28;20114;-83
2023/06/03 03:01:05;;;;;;;1.00;0.60;;;10.40;99.90;;;;;;4944013;28;20646;-80
2023/06/03 03:03:37;;;;;;;2.67;0.70;;;10.40;99.90;;;;;;4946999;28;20176;-81
2023/06/03 03:06:03;;;;;;;1.83;0.50;;;10.40;99.90;;;;;;4972710;28;20383;-80
2023/06/03 03:08:35;;;;;;;2.25;0.63;;;10.30;99.90;;;;;;4958294;28;20047;-81
2023/06/03 03:11:01;;;;;;;1.05;0.52;;;10.30;99.90;;;;;;4948640;28;20126;-83
2023/06/03 03:13:27;;;;;;;1.35;0.50;;;10.20;99.90;;;;;;4940295;28;20134;-82
2023/06/03 03:15:52;;;;;;;1.33;0.55;;;10.20;99.90;;;;;;4940955;28;20054;-84
2023/06/03 03:18:18;;;;;;;0.85;0.63;;;10.10;99.90;;;;;;4939809;28;20060;-81
2023/06/03 03:20:44;;;;;;;2.33;0.68;;;10.10;99.90;;;;;;4922106;28;20046;-84
2023/06/03 03:23:12;;;;;;;1.50;0.63;;;10.10;99.90;;;;;;4933905;28;20474;-83
2023/06/03 03:25:40;;;;;;;1.65;0.60;;;10.10;99.90;;;;;;4955027;28;20047;-81
2023/06/03 03:28:06;;;;;;;1.00;0.60;;;10.00;99.90;;;;;;4974760;28;20054;-82
2023/06/03 03:30:32;;;;;;;1.10;0.52;;;10.00;99.90;;;;;;4968800;28;20122;-82
2023/06/03 03:32:59;;;;;;;2.13;0.70;;;9.90;99.90;;;;;;4952576;28;20129;-82
2023/06/03 03:35:25;;;;;;;2.03;0.70;;;9.90;99.90;;;;;;4953939;28;20125;-82
2023/06/03 03:37:59;;;;;;;1.33;0.65;;;10.00;99.90;;;;;;4954625;28;20034;-83
2023/06/03 03:40:25;;;;;;;1.23;0.70;;;9.90;99.90;;;;;;4951597;28;20077;-83
2023/06/03 03:42:53;;;;;;;0.77;0.50;;;10.00;99.90;;;;;;4954787;28;20078;-81
2023/06/03 03:45:19;;;;;;;;;;;10.00;99.90;;;;;;4923124;28;20051;-82
2023/06/03 03:47:57;;;;;;;1.00;0.50;;;10.00;99.90;;;;;;4970527;28;19922;-83
2023/06/03 03:50:41;;;;;;;1.98;0.60;;;10.10;99.90;;;;;;4938892;28;20512;-80
2023/06/03 03:53:31;;;;;;;2.00;0.60;;;10.10;99.90;;;;;;4957035;28;20141;-82
2023/06/03 03:55:57;;;;;;;2.53;0.70;;;10.10;99.90;;;;;;4981562;28;20054;-83
2023/06/03 03:58:29;;;;;;;1.63;0.80;;;10.20;99.90;;;;;;4955035;28;20125;-81
2023/06/03 04:01:00;;;;;;;2.92;0.65;;;10.20;99.90;;;;;;4962403;23;20053;-81
2023/06/03 04:03:29;;;;;;;1.60;0.50;;;10.20;99.90;;;;;;4970287;28;20495;-82
2023/06/03 04:06:00;;;;;;;1.27;0.77;;;10.30;99.90;;;;;;4969918;28;20115;-84
2023/06/03 04:08:46;;;;;;;3.92;0.70;;;10.40;99.90;;;;;;4953816;28;20053;-85
2023/06/03 04:11:26;;;;;;;3.25;0.63;;;10.40;99.90;;;;;;4968326;28;20046;-85
2023/06/03 04:13:52;;;;;;;2.95;0.60;;;10.50;99.90;;;;;;4971364;28;20042;-82
2023/06/03 04:16:55;;;;;;;1.95;0.73;;;10.50;99.90;;;;;;4974838;28;20118;-83
2023/06/03 04:19:27;;;;;;;1.10;0.60;;;10.60;99.90;;;;;;4967649;28;20038;-86
2023/06/03 04:21:54;;;;;;;2.80;0.60;;;10.60;99.90;;;;;;4974009;28;20073;-84
2023/06/03 04:24:19;;;;;;;2.88;0.70;;;10.70;99.90;;;;;;4954329;28;20121;-86
2023/06/03 04:26:47;;;;;;;3.38;1.10;;;10.70;99.90;;;;;;4940649;28;20142;-85
2023/06/03 04:29:14;;;;;;;4.68;0.93;;;10.80;99.90;;;;;;4956865;28;20124;-84
2023/06/03 04:31:39;;;;;;;1.83;0.90;;;10.80;99.90;;;;;;4947569;28;20130;-83
2023/06/03 04:34:05;;;;;;;2.97;1.23;;;10.80;99.90;;;;;;4954669;28;20046;-85
2023/06/03 04:36:31;;;;;;;4.03;0.90;;;10.80;99.90;;;;;;4931644;28;20057;-83
2023/06/03 04:38:58;;;;;;;1.77;0.90;;;10.90;99.90;;;;;;4970435;28;20058;-80
2023/06/03 04:41:27;;;;;;;3.03;0.70;;;10.90;99.90;;;;;;4960788;28;20052;-84
2023/06/03 04:43:54;;;;;;;1.98;0.80;;;11.00;99.90;;;;;;4951953;28;20046;-84
2023/06/03 04:46:21;;;;;;;;;;;11.00;99.90;;;;;;4955588;28;20054;-85
2023/06/03 04:48:48;;;;;;;0.65;0.60;;;11.00;99.90;;;;;;4968964;28;19922;-86
2023/06/03 04:51:33;;;;;;;2.65;0.73;;;11.00;99.90;;;;;;4957377;28;20086;-86
2023/06/03 04:54:00;;;;;;;0.95;0.60;;;11.10;99.90;;;;;;4981335;28;20081;-83
2023/06/03 04:56:28;;;;;;;;;;;11.20;99.90;;;;;;4958050;28;20113;-93
2023/06/03 04:59:00;;;;;;;0.82;0.65;;;11.20;99.90;;;;;;4979235;28;20669;-89
2023/06/03 05:01:27;;;;;;;2.65;0.82;;;11.30;99.90;;;;;;4966765;28;20116;-84
2023/06/03 05:03:53;;;;;;;2.45;0.88;;;11.30;99.90;;;;;;4966560;28;20049;-85
2023/06/03 05:06:20;;;;;;;1.83;0.85;;;11.40;99.90;;;;;;4938743;28;20500;-82
2023/06/03 05:08:50;;;;;;;2.57;0.77;;;11.50;99.90;;;;;;4986913;28;20046;-86
2023/06/03 05:11:17;;;;;;;3.13;0.90;;;11.60;99.90;;;;;;4977353;28;20049;-84
2023/06/03 05:13:44;;;;;;;4.97;1.50;;;11.60;99.90;;;;;;4973529;28;20046;-83
2023/06/03 05:16:11;;;;;;;2.50;0.90;;;11.60;99.90;;;;;;4955016;28;20062;-83
2023/06/03 05:18:38;;;;;;;2.35;0.80;;;11.60;99.90;;;;;;4952564;28;20129;-82
2023/06/03 05:21:05;;;;;;;0.88;0.50;;;11.70;99.90;;;;;;4954403;28;20601;-85
2023/06/03 05:23:31;;;;;;;1.38;0.70;;;11.70;99.90;;;;;;4947300;28;20081;-86
2023/06/03 05:25:56;;;;;;;1.75;0.90;;;11.80;99.90;;;;;;4938831;28;20132;-83
2023/06/03 05:28:23;;;;;;;1.88;0.90;;;11.90;99.90;;;;;;4970609;28;20554;-82
2023/06/03 05:30:49;;;;;;;1.58;0.70;;;12.00;99.90;;;;;;4972995;28;20084;-83
2023/06/03 05:33:29;;;;;;;2.40;0.90;;;12.10;99.90;;;;;;4957287;28;20124;-82
2023/06/03 05:35:55;;;;;;;3.58;0.80;;;12.20;99.90;;;;;;4970764;28;20462;-84
2023/06/03 05:38:20;;;;;;;1.80;0.70;;;12.40;99.90;;;;;;4951643;28;20151;-84
2023/06/03 05:40:48;;;;;;;1.27;0.50;;;12.50;99.90;;;;;;4989666;28;20582;-87
2023/06/03 05:43:15;;;;;;;1.50;0.68;;;12.60;99.90;;;;;;4957387;28;20048;-81
2023/06/03 05:45:41;;;;;;;1.60;0.90;;;12.80;99.90;;;;;;4974367;28;20097;-81
2023/06/03 05:48:07;;;;;;;5.97;0.70;;;12.90;99.90;;;;;;4936419;28;20039;-82
2023/06/03 05:50:37;;;;;;;1.00;0.45;;;13.20;99.90;;;;;;4970584;28;20144;-84
2023/06/03 05:53:03;;;;;;;1.33;0.63;;;14.00;99.90;;;;;;4984648;28;20050;-86
2023/06/03 05:55:29;;;;;;;1.35;0.88;;;15.20;99.90;;;;;;4954463;28;20050;-80
2023/06/03 05:57:55;;;;;;;0.85;0.50;;;16.50;96.40;;;;;;4984253;28;20074;-82
2023/06/03 06:00:21;;;;;;;1.13;0.47;;;17.00;99.90;;;;;;4972484;28;20074;-82
2023/06/03 06:02:50;;;;;;;2.75;0.80;;;17.50;97.90;;;;;;4996778;28;20507;-86
2023/06/03 06:05:16;;;;;;;1.85;0.50;;;17.90;90.50;;;;;;4958469;28;20039;-84
2023/06/03 06:07:41;;;;;;;1.52;0.63;;;18.30;86.50;;;;;;4973266;28;20042;-82
2023/06/03 06:10:07;;;;;;;0.55;0.40;;;18.10;82.80;;;;;;4977310;28;20049;-85
2023/06/03 06:12:33;;;;;;;1.98;0.60;;;18.00;79.60;;;;;;4966363;28;20145;-82
2023/06/03 06:15:02;;;;;;;0.82;0.40;;;18.10;78.60;;;;;;4958582;28;20558;-85
2023/06/03 06:17:28;;;;;;;0.88;0.50;;;18.30;75.70;;;;;;4963899;28;20113;-83
2023/06/03 06:19:54;;;;;;;0.50;0.40;;;18.60;78.40;;;;;;4954368;23;20167;-93
2023/06/03 06:22:20;;;;;;;1.38;0.70;;;18.40;76.70;;;;;;4962687;28;20129;-92
2023/06/03 06:24:45;;;;;;;1.23;0.70;;;17.90;77.50;;;;;;4946667;28;20049;-92
2023/06/03 06:27:11;;;;;;;1.88;0.57;;;17.50;77.90;;;;;;4958414;28;20070;-93
2023/06/03 06:29:37;;;;;;;1.05;0.50;;;17.00;78.90;;;;;;4966344;28;20042;-94
2023/06/03 06:32:06;;;;;;;2.03;0.68;;;16.60;79.40;;;;;;4946614;28;20042;-93
2023/06/03 06:34:34;;;;;;;0.70;0.40;;;16.30;81.10;;;;;;4975803;28;20025;-91
2023/06/03 06:37:00;;;;;;;2.65;0.70;;;16.10;83.20;;;;;;4969195;28;20026;-93
2023/06/03 06:39:44;;;;;;;2.20;0.50;;;16.10;84.60;;;;;;4986052;28;20054;-91
2023/06/03 06:42:20;;;;;;;0.98;0.60;;;16.10;86.20;;;;;;4986358;28;20171;-93
2023/06/03 06:44:50;;;;;;;1.42;0.60;;;16.30;88.50;;;;;;4990776;28;20485;-93
2023/06/03 06:47:21;;;;;;;2.00;0.90;;;16.30;87.40;;;;;;4941762;28;20031;-93
2023/06/03 06:49:48;;;;;;;1.40;0.60;;;16.40;86.00;;;;;;4945023;28;20085;-94
2023/06/03 06:52:14;;;;;;;2.05;0.50;;;16.60;82.30;;;;;;4955514;28;20047;-91
2023/06/03 06:54:41;;;;;;;2.10;0.80;;;16.60;80.20;;;;;;4959682;28;20069;-93
2023/06/03 06:57:07;;;;;;;1.52;0.70;;;16.80;80.70;;;;;;4943339;28;20042;-95
2023/06/03 06:59:33;;;;;;;1.83;0.50;;;17.10;80.90;;;;;;4944616;28;20035;-92
2023/06/03 07:01:59;;;;;;;0.98;0.40;;;17.80;81.70;;;;;;4957299;28;20061;-92
2023/06/03 07:04:25;;;;;;;1.67;0.70;;;19.20;83.50;;;;;;4960150;28;20045;-94
2023/06/03 07:06:51;;;;;;;3.03;0.52;;;20.50;77.70;;;;;;4949539;28;20037;-92
2023/06/03 07:09:16;;;;;;;0.63;0.43;;;21.30;74.10;;;;;;4944378;28;20094;-93
2023/06/03 07:11:44;;;;;;;1.02;0.40;;;22.10;72.80;;;;;;4962195;28;20050;-92
2023/06/03 07:19:38;;;;;;;3.60;0.57;;;22.30;64.00;;;;;;5460815;23;20056;-95
2023/06/03 07:22:07;;;;;;;1.15;0.60;;;22.20;63.10;;;;;;4885947;29;20048;-95
2023/06/03 07:24:34;;;;;;;1.85;0.40;;;21.70;62.60;;;;;;4869029;29;20168;-94
2023/06/03 07:27:00;;;;;;;1.35;0.40;;;21.90;64.90;;;;;;4902021;29;20051;-93
2023/06/03 07:29:34;;;;;;;0.63;0.50;;;22.40;63.30;;;;;;4903382;29;20130;-93
2023/06/03 07:32:01;;;;;;;0.60;0.40;;;22.50;62.80;;;;;;4900858;29;20047;-93
2023/06/03 07:34:28;;;;;;;1.08;0.38;;;22.40;61.30;;;;;;4898948;29;20044;-93
2023/06/03 07:36:58;;;;;;;2.03;0.50;;;21.40;62.60;;;;;;4867799;29;20066;-93
2023/06/03 07:39:24;;;;;;;1.42;0.40;;;20.40;61.80;;;;;;4887861;29;20039;-93
2023/06/03 07:41:51;;;;;;;1.40;0.35;;;19.40;62.00;;;;;;4904891;29;20047;-94
2023/06/03 07:44:32;;;;;;;2.53;0.52;;;18.80;64.60;;;;;;4890460;29;20048;-94
2023/06/03 07:46:57;;;;;;;2.13;0.43;;;18.40;65.50;;;;;;4897221;29;20744;-94
2023/06/03 07:49:23;;;;;;;0.60;0.35;;;18.00;66.30;;;;;;4864920;29;20044;-92
2023/06/03 07:51:51;;;;;;;0.80;0.50;;;17.80;67.10;;;;;;4887346;29;20036;-92
2023/06/03 07:54:18;;;;;;;1.95;0.60;;;17.70;67.10;;;;;;4884905;29;20044;-92
2023/06/03 07:56:45;;;;;;;1.27;0.50;;;17.60;66.70;;;;;;4884946;29;20036;-93
2023/06/03 07:59:12;;;;;;;0.57;0.40;;;17.50;66.20;;;;;;4865356;29;20071;-93
2023/06/03 08:01:38;;;;;;;1.10;0.40;;;17.40;66.40;;;;;;4855044;29;20734;-94
2023/06/03 08:04:19;;;;;;;2.50;0.50;;;17.30;66.90;;;;;;4899325;29;20097;-93
2023/06/03 08:06:45;;;;;;;1.05;0.40;;;17.20;67.60;;;;;;4899702;29;20443;-93
2023/06/03 08:09:40;;;;;;;2.75;0.45;;;16.90;67.30;;;;;;4870141;29;20040;-91
2023/06/03 08:12:08;;;;;;;1.27;0.40;;;16.90;68.10;;;;;;4888523;29;20663;-92
2023/06/03 08:14:36;;;;;;;2.60;0.57;;;16.80;67.80;;;;;;4872316;29;20047;-95
2023/06/03 08:17:13;;;;;;;1.35;0.40;;;17.10;68.70;;;;;;4869145;29;20036;-94
2023/06/03 08:19:43;;;;;;;2.40;0.47;;;17.40;68.20;;;;;;4890985;29;20120;-94
2023/06/03 08:22:42;;;;;;;3.92;0.57;;;17.60;66.70;;;;;;4882801;29;20045;-94
2023/06/03 08:25:08;;;;;;;4.00;0.55;;;17.90;67.00;;;;;;4898107;29;20047;-93
2023/06/03 08:27:35;;;;;;;1.25;0.38;;;18.40;66.70;;;;;;4916596;29;20047;-94
2023/06/03 08:30:03;;;;;;;;;;;19.10;66.60;;;;;;4900510;29;20080;-94
2023/06/03 08:32:32;;;;;;;1.08;0.52;;;19.40;64.40;;;;;;4885551;29;20458;-94
2023/06/03 08:34:58;;;;;;;1.60;0.40;;;19.40;64.90;;;;;;4896439;29;20056;-95
2023/06/03 08:37:25;;;;;;;2.90;0.43;;;19.50;65.60;;;;;;4885861;29;20070;-96
2023/06/03 08:39:50;;;;;;;0.50;0.32;;;19.80;64.50;;;;;;4902499;29;20127;-96
2023/06/03 08:42:23;;;;;;;1.60;1.17;;;20.30;62.90;;;;;;4910773;29;20059;-96
2023/06/03 08:44:58;;;;;;;2.00;0.50;;;20.50;61.80;;;;;;4920956;29;20076;-96
2023/06/03 08:47:32;;;;;;;1.27;0.40;;;20.80;61.70;;;;;;4924010;29;20032;-95
2023/06/03 08:50:07;;;;;;;0.80;0.40;;;21.30;61.30;;;;;;4920402;29;20027;-96
2023/06/03 08:52:37;;;;;;;3.28;0.60;;;21.60;60.90;;;;;;4921721;29;20139;-94
2023/06/03 09:28:06;;;;;;;2.10;0.80;;;22.60;56.50;;;;;;5076013;27;20751;-92
2023/06/03 09:30:35;;;;;;;0.47;0.40;;;22.50;58.70;;;;;;5047245;28;20039;-94
2023/06/03 09:33:01;;;;;;;0.95;0.60;;;22.50;58.80;;;;;;5053454;28;20031;-86
2023/06/03 09:35:27;;;;;;;4.32;0.50;;;22.60;58.70;;;;;;5052190;28;20553;-88
2023/06/03 09:38:01;;;;;;;1.35;0.52;;;22.60;58.50;;;;;;5029358;28;20045;-92
2023/06/03 09:40:31;;;;;;;1.00;0.45;;;22.60;57.90;;;;;;5062970;28;20549;-93
2023/06/03 09:42:58;;;;;;;0.68;0.40;;;22.50;56.40;;;;;;5054987;28;20041;-95
2023/06/03 09:45:37;;;;;;;0.82;0.32;;;22.10;53.80;;;;;;5040746;28;20106;-96
2023/06/03 09:48:08;;;;;;;4.25;0.47;;;21.50;52.00;;;;;;5056993;28;20032;-96
2023/06/03 09:50:48;;;;;;;2.65;0.70;;;21.20;53.60;;;;;;5054045;28;20045;-96
2023/06/03 09:53:24;;;;;;;1.30;0.55;;;21.20;54.50;;;;;;5055824;28;20020;-96
2023/06/03 09:56:27;;;;;;;1.27;0.40;;;21.20;53.80;;;;;;5041887;28;20045;-96
2023/06/03 10:06:18;;;;;;;2.05;0.40;;;20.90;54.40;;;;;;5019726;28;20053;-96
2023/06/03 10:09:25;;;;;;;1.40;0.40;;;20.80;54.40;;;;;;4985483;28;20034;-96
2023/06/03 10:12:42;;;;;;;1.05;0.40;;;20.80;54.10;;;;;;5008707;28;20461;-95
2023/06/03 10:19:29;;;;;;;2.15;0.57;;;20.80;54.30;;;;;;4953938;28;20491;-95
2023/06/03 10:25:52;;;;;;;0.80;0.40;;;20.70;55.60;;;;;;4934768;28;20793;-96
2023/06/03 10:28:27;;;;;;;0.93;0.50;;;20.90;55.80;;;;;;4881441;29;20049;-96
2023/06/03 10:31:57;;;;;;;;;;;;;;;;;;;;;
2023/06/03 10:34:49;;;;;;;2.05;0.43;;;20.80;54.30;;;;;;4961963;29;20237;-96
2023/06/03 10:41:31;;;;;;;1.13;0.50;;;20.60;54.90;;;;;;4942797;29;20062;-96
2023/06/03 10:44:28;;;;;;;1.08;0.30;;;21.00;55.60;;;;;;4914437;29;20040;-96
2023/06/03 10:47:26;;;;;;;2.08;0.25;;;21.10;55.90;;;;;;4904464;29;20047;-94
2023/06/03 10:50:14;;;;;;;4.68;0.50;;;21.30;55.80;;;;;;4921004;29;20057;-92
2023/06/03 10:53:04;;;;;;;4.55;0.40;;;21.50;55.80;;;;;;4939860;28;20031;-92
2023/06/03 10:55:38;;;;;;;3.05;0.52;;;21.60;55.40;;;;;;4938267;28;20441;-93
2023/06/03 10:58:13;;;;;;;0.82;0.55;;;21.80;55.20;;;;;;4940354;28;20082;-93
2023/06/03 11:00:57;;;;;;;1.38;0.60;;;21.90;55.20;;;;;;4976911;28;20069;-93
2023/06/03 11:03:25;;;;;;;0.68;0.40;;;21.80;54.40;;;;;;4971242;28;20042;-92
2023/06/03 11:05:52;;;;;;;3.47;1.00;;;21.70;54.20;;;;;;5022540;28;20048;-92
2023/06/03 11:08:37;;;;;;;;;;;21.80;54.80;;;;;;5017385;28;20102;-91
2023/06/03 11:11:03;;;;;;;1.20;0.73;;;22.10;55.30;;;;;;5048548;28;19917;-91
2023/06/03 11:13:41;;;;;;;2.25;1.13;;;22.20;54.60;;;;;;5009802;28;20035;-96
2023/06/03 11:16:07;;;;;;;0.73;0.50;;;22.10;54.20;;;;;;5037416;28;20182;-92
2023/06/03 11:18:32;;;;;;;5.38;0.50;;;22.20;54.10;;;;;;5009453;28;20120;-92
2023/06/03 11:20:58;;;;;;;0.63;0.40;;;22.20;54.00;;;;;;5017059;28;20041;-92
2023/06/03 11:23:45;;;;;;;4.05;0.30;;;22.20;54.50;;;;;;5050831;28;20107;-94
2023/06/03 11:26:36;;;;;;;1.10;0.40;;;22.30;55.30;;;;;;5061554;28;20126;-96
2023/06/03 11:29:43;;;;;;;1.35;0.40;;;22.30;54.70;;;;;;5045444;28;20048;-95
2023/06/03 11:32:17;;;;;;;3.40;0.50;;;22.40;53.10;;;;;;5046311;28;20663;-96
2023/06/03 11:34:45;;;;;;;2.33;0.52;;;22.40;54.30;;;;;;5048235;28;20033;-96
2023/06/03 11:37:17;;;;;;;4.40;0.50;;;22.50;54.30;;;;;;5019179;28;20543;-95
2023/06/03 11:40:06;;;;;;;2.38;0.47;;;22.30;53.60;;;;;;5023116;28;20037;-96
2023/06/03 11:42:50;;;;;;;2.80;0.60;;;22.30;54.30;;;;;;5034657;28;20044;-96
2023/06/03 11:45:26;;;;;;;1.23;0.52;;;22.50;54.60;;;;;;5032792;28;20044;-95
2023/06/03 11:48:28;;;;;;;2.58;0.75;;;22.50;54.30;;;;;;5036725;28;20070;-96
2023/06/03 11:50:59;;;;;;;2.47;0.77;;;22.40;53.80;;;;;;5042458;28;20119;-96
2023/06/03 11:53:41;;;;;;;1.67;0.50;;;22.30;53.60;;;;;;5039700;28;20039;-95
2023/06/03 11:56:13;;;;;;;1.33;0.35;;;22.30;54.30;;;;;;5032558;28;20040;-96
2023/06/03 11:58:51;;;;;;;2.05;0.30;;;22.30;54.60;;;;;;5043302;28;20063;-96
2023/06/03 12:01:23;;;;;;;0.68;0.40;;;22.30;54.20;;;;;;5043228;28;20041;-96
2023/06/03 12:04:10;;;;;;;3.25;0.63;;;22.30;54.20;;;;;;5018973;28;20049;-96
2023/06/03 12:06:39;;;;;;;1.17;0.40;;;22.30;54.50;;;;;;5041379;28;20041;-96
2023/06/03 12:09:05;;;;;;;2.05;0.50;;;22.20;55.00;;;;;;5041183;28;20033;-96
2023/06/03 12:11:33;;;;;;;0.63;0.35;;;22.20;55.20;;;;;;5041485;28;20037;-95
2023/06/03 12:13:59;;;;;;;0.65;0.43;;;22.10;55.40;;;;;;5033483;28;20530;-95
2023/06/03 12:16:27;;;;;;;0.82;0.40;;;22.00;55.20;;;;;;5039015;28;20041;-96
2023/06/03 12:18:53;;;;;;;2.50;0.50;;;21.90;55.10;;;;;;5039733;28;20488;-96
2023/06/03 12:21:22;;;;;;;2.13;0.43;;;21.90;55.10;;;;;;5035504;28;20377;-96
2023/06/03 12:26:42;;;;;;;1.48;0.50;;;21.70;54.50;;;;;;5112483;22;20049;-96
2023/06/03 12:29:10;;;;;;;1.10;0.50;;;21.50;54.50;;;;;;5017198;28;20064;-95
2023/06/03 12:32:01;;;;;;;0.93;0.40;;;21.40;55.60;;;;;;5002052;28;20037;-96
2023/06/03 12:34:35;;;;;;;1.10;0.47;;;21.40;55.50;;;;;;5022079;28;20037;-96
2023/06/03 12:37:26;;;;;;;2.92;0.40;;;21.20;56.60;;;;;;5021377;28;20094;-96
2023/06/03 12:39:58;;;;;;;1.50;0.60;;;21.20;56.70;;;;;;5021166;28;20095;-96
2023/06/03 12:42:36;;;;;;;2.50;0.47;;;21.20;56.80;;;;;;5053236;28;20106;-95
2023/06/03 12:45:10;;;;;;;1.25;0.30;;;21.00;57.00;;;;;;5005958;28;20046;-96
2023/06/03 12:47:46;;;;;;;1.95;0.40;;;21.10;58.00;;;;;;5017536;28;20053;-94
2023/06/03 12:50:22;;;;;;;0.95;0.30;;;21.00;58.90;;;;;;5011638;28;20033;-94
2023/06/03 12:53:16;;;;;;;0.85;0.50;;;20.90;58.20;;;;;;5049644;28;20395;-95
2023/06/03 12:55:45;;;;;;;0.90;0.32;;;20.90;58.50;;;;;;5032172;28;20049;-95
2023/06/03 12:58:10;;;;;;;0.90;0.38;;;20.90;58.00;;;;;;5018734;28;20037;-96
2023/06/03 13:00:37;;;;;;;1.05;0.50;;;20.70;57.60;;;;;;5019940;28;20061;-96
2023/06/03 13:03:02;;;;;;;6.63;0.40;;;20.60;57.20;;;;;;5025935;28;20506;-95
2023/06/03 13:05:31;;;;;;;3.72;0.55;;;20.50;57.70;;;;;;5016719;28;20037;-96
2023/06/03 13:07:57;;;;;;;2.47;0.40;;;20.50;58.70;;;;;;5035725;28;20045;-96
2023/06/03 13:10:23;;;;;;;1.30;0.30;;;20.40;58.10;;;;;;4999866;28;20041;-95
2023/06/03 13:12:49;;;;;;;0.70;0.35;;;20.40;58.30;;;;;;5013431;28;20041;-92
2023/06/03 13:15:15;;;;;;;1.10;0.40;;;20.40;59.00;;;;;;5017456;28;20033;-90
2023/06/03 13:17:41;;;;;;;1.23;0.43;;;20.30;59.80;;;;;;5021296;28;20336;-89
2023/06/03 13:20:08;;;;;;;1.73;0.55;;;20.20;59.80;;;;;;5036888;28;20045;-90
2023/06/03 13:22:35;;;;;;;1.10;0.57;;;20.20;60.30;;;;;;5011955;28;20037;-93
2023/06/03 13:25:01;;;;;;;44.85;18.35;;;20.10;60.30;;;;;;5017592;28;20053;-92
2023/06/03 13:27:27;;;;;;;2.78;1.23;;;20.20;60.70;;;;;;5026223;28;20108;-91
2023/06/03 13:29:53;;;;;;;1.73;0.90;;;20.20;60.70;;;;;;5003913;28;20044;-91
2023/06/03 13:32:23;;;;;;;1.83;0.80;;;20.20;60.30;;;;;;5018946;28;20037;-93
2023/06/03 13:34:51;;;;;;;2.78;0.63;;;20.20;61.10;;;;;;5038010;28;20167;-91
2023/06/03 13:37:17;;;;;;;2.20;0.52;;;20.10;61.60;;;;;;5019096;28;20045;-92
2023/06/03 13:39:43;;;;;;;0.47;0.33;;;20.00;60.70;;;;;;5013518;28;20083;-93
2023/06/03 13:42:10;;;;;;;1.17;0.40;;;20.00;61.00;;;;;;5016236;28;20072;-92
2023/06/03 13:44:35;;;;;;;2.17;0.70;;;20.00;62.20;;;;;;5015125;28;20400;-91
2023/06/03 13:47:03;;;;;;;1.13;0.50;;;19.90;61.80;;;;;;5017453;28;20038;-93
2023/06/03 13:49:38;;;;;;;0.65;0.40;;;19.90;62.50;;;;;;5018678;28;20065;-93
2023/06/03 13:52:05;;;;;;;1.33;0.32;;;19.90;63.30;;;;;;5031853;28;20044;-94
2023/06/03 13:54:34;;;;;;;1.90;0.50;;;19.90;63.10;;;;;;5019678;28;20472;-94
2023/06/03 13:57:01;;;;;;;1.27;0.30;;;20.00;63.20;;;;;;5019853;28;20041;-93
2023/06/03 13:59:27;;;;;;;1.65;0.30;;;20.00;63.30;;;;;;5014515;28;20049;-93
2023/06/03 14:01:53;;;;;;;0.97;0.43;;;19.90;63.00;;;;;;5018578;28;20120;-94
2023/06/03 14:04:20;;;;;;;1.70;0.70;;;19.90;63.10;;;;;;4993160;28;20084;-95
2023/06/03 14:06:46;;;;;;;3.30;0.50;;;19.90;63.70;;;;;;5017350;28;20766;-94
2023/06/03 14:09:12;;;;;;;2.33;0.45;;;19.90;63.90;;;;;;4997385;28;20037;-96